sensor_id;sensor_type;location;lat;lon;timestamp;pressure;altitude;pressure_sealevel;temperature;humidity
46718;BME280;32448;44.960;-0.698;2023-03-14T00:02:17;100461.66;;;11.01;100.00
46718;BME280;32448;44.960;-0.698;2023-03-14T00:04:44;100458.09;;;10.94;100.00
46718;BME280;32448;44.960;-0.698;2023-03-14T00:07:13;100458.16;;;11.00;100.00
46718;BME280;32448;44.960;-0.698;2023-03-14T00:09:40;100448.63;;;11.05;100.00
46718;BME280;32448;44.960;-0.698;2023-03-14T00:12:08;100451.22;;;11.05;100.00
46718;BME280;32448;44.960;-0.698;2023-03-14T00:14:36;100462.47;;;10.97;100.00
46718;BME280;32448;44.960;-0.698;2023-03-14T00:17:03;100467.84;;;11.09;100.00
46718;BME280;32448;44.960;-0.698;2023-03-14T00:19:30;100473.88;;;11.05;100.00
46718;BME280;32448;44.960;-0.698;2023-03-14T00:21:57;100477.47;;;11.11;100.00
46718;BME280;32448;44.960;-0.698;2023-03-14T00:24:25;100494.84;;;11.08;100.00
46718;BME280;32448;44.960;-0.698;2023-03-14T00:26:52;100481.75;;;11.06;100.00
46718;BME280;32448;44.960;-0.698;2023-03-14T00:29:21;100473.06;;;11.04;100.00
46718;BME280;32448;44.960;-0.698;2023-03-14T00:31:51;100489.53;;;10.99;100.00
46718;BME280;32448;44.960;-0.698;2023-03-14T00:34:19;100469.44;;;10.94;100.00
46718;BME280;32448;44.960;-0.698;2023-03-14T00:36:46;100485.19;;;11.01;100.00
46718;BME280;32448;44.960;-0.698;2023-03-14T00:39:13;100481.72;;;11.02;100.00
46718;BME280;32448;44.960;-0.698;2023-03-14T00:41:40;100487.84;;;11.05;100.00
46718;BME280;32448;44.960;-0.698;2023-03-14T00:44:07;100494.84;;;11.08;100.00
46718;BME280;32448;44.960;-0.698;2023-03-14T00:46:35;100509.66;;;11.03;100.00
46718;BME280;32448;44.960;-0.698;2023-03-14T00:49:05;100500.88;;;10.99;100.00
46718;BME280;32448;44.960;-0.698;2023-03-14T00:51:32;100508.75;;;11.02;100.00
46718;BME280;32448;44.960;-0.698;2023-03-14T00:54:00;100481.59;;;10.89;100.00
46718;BME280;32448;44.960;-0.698;2023-03-14T00:56:27;100505.28;;;11.03;100.00
46718;BME280;32448;44.960;-0.698;2023-03-14T00:58:55;100527.97;;;11.06;100.00
46718;BME280;32448;44.960;-0.698;2023-03-14T01:01:23;100500.09;;;11.08;100.00
46718;BME280;32448;44.960;-0.698;2023-03-14T01:03:52;100500.84;;;10.98;100.00
46718;BME280;32448;44.960;-0.698;2023-03-14T01:06:25;100512.22;;;11.01;100.00
46718;BME280;32448;44.960;-0.698;2023-03-14T01:09:23;100516.72;;;11.13;100.00
46718;BME280;32448;44.960;-0.698;2023-03-14T01:12:27;100529.72;;;11.07;100.00
46718;BME280;32448;44.960;-0.698;2023-03-14T01:14:54;100535.78;;;11.01;100.00
46718;BME280;32448;44.960;-0.698;2023-03-14T01:17:23;100517.50;;;11.06;100.00
46718;BME280;32448;44.960;-0.698;2023-03-14T01:19:50;100527.97;;;11.07;100.00
46718;BME280;32448;44.960;-0.698;2023-03-14T01:22:18;100501.78;;;11.01;100.00
46718;BME280;32448;44.960;-0.698;2023-03-14T01:24:45;100531.34;;;10.97;100.00
46718;BME280;32448;44.960;-0.698;2023-03-14T01:27:12;100523.59;;;11.06;100.00
46718;BME280;32448;44.960;-0.698;2023-03-14T01:29:40;100500.81;;;10.94;100.00
46718;BME280;32448;44.960;-0.698;2023-03-14T01:35:33;100527.00;;;10.98;100.00
46718;BME280;32448;44.960;-0.698;2023-03-14T01:38:01;100546.34;;;11.10;100.00
46718;BME280;32448;44.960;-0.698;2023-03-14T01:52:59;100557.59;;;11.03;100.00
46718;BME280;32448;44.960;-0.698;2023-03-14T01:55:29;100589.16;;;11.20;100.00
46718;BME280;32448;44.960;-0.698;2023-03-14T01:58:02;100581.22;;;11.12;100.00
46718;BME280;32448;44.960;-0.698;2023-03-14T02:00:31;100608.28;;;11.16;100.00
46718;BME280;32448;44.960;-0.698;2023-03-14T02:03:02;100608.28;;;11.13;100.00
46718;BME280;32448;44.960;-0.698;2023-03-14T02:05:35;100606.56;;;11.16;100.00
46718;BME280;32448;44.960;-0.698;2023-03-14T02:08:13;100622.22;;;11.12;100.00
46718;BME280;32448;44.960;-0.698;2023-03-14T02:10:49;100643.16;;;11.16;100.00
46718;BME280;32448;44.960;-0.698;2023-03-14T02:13:44;100658.00;;;11.16;100.00
46718;BME280;32448;44.960;-0.698;2023-03-14T02:16:41;100672.63;;;11.00;100.00
46718;BME280;32448;44.960;-0.698;2023-03-14T02:22:19;100674.16;;;10.86;100.00
46718;BME280;32448;44.960;-0.698;2023-03-14T02:27:26;100684.53;;;10.80;100.00
46718;BME280;32448;44.960;-0.698;2023-03-14T02:30:04;100697.63;;;10.83;100.00
46718;BME280;32448;44.960;-0.698;2023-03-14T02:32:33;100686.88;;;10.63;100.00
46718;BME280;32448;44.960;-0.698;2023-03-14T02:35:08;100696.31;;;10.53;100.00
46718;BME280;32448;44.960;-0.698;2023-03-14T02:37:41;100706.13;;;10.67;100.00
46718;BME280;32448;44.960;-0.698;2023-03-14T02:40:11;100740.75;;;10.53;100.00
46718;BME280;32448;44.960;-0.698;2023-03-14T02:42:39;100720.84;;;10.60;100.00
46718;BME280;32448;44.960;-0.698;2023-03-14T02:47:48;100723.97;;;10.38;100.00
46718;BME280;32448;44.960;-0.698;2023-03-14T02:50:25;100727.44;;;10.38;100.00
46718;BME280;32448;44.960;-0.698;2023-03-14T02:52:53;100734.34;;;10.35;100.00
46718;BME280;32448;44.960;-0.698;2023-03-14T02:55:24;100729.16;;;10.36;100.00
46718;BME280;32448;44.960;-0.698;2023-03-14T02:57:57;100764.03;;;10.38;100.00
46718;BME280;32448;44.960;-0.698;2023-03-14T03:00:24;100728.75;;;10.15;100.00
46718;BME280;32448;44.960;-0.698;2023-03-14T03:02:52;100738.28;;;10.13;100.00
46718;BME280;32448;44.960;-0.698;2023-03-14T03:05:20;100763.75;;;10.23;100.00
46718;BME280;32448;44.960;-0.698;2023-03-14T03:07:47;100775.97;;;10.24;100.00
46718;BME280;32448;44.960;-0.698;2023-03-14T03:10:15;100784.75;;;10.29;100.00
46718;BME280;32448;44.960;-0.698;2023-03-14T03:12:43;100778.59;;;10.26;100.00
46718;BME280;32448;44.960;-0.698;2023-03-14T03:15:11;100761.69;;;10.08;100.00
46718;BME280;32448;44.960;-0.698;2023-03-14T03:17:39;100780.97;;;10.15;100.00
46718;BME280;32448;44.960;-0.698;2023-03-14T03:20:07;100786.97;;;10.09;100.00
46718;BME280;32448;44.960;-0.698;2023-03-14T03:22:58;100795.69;;;10.10;100.00
46718;BME280;32448;44.960;-0.698;2023-03-14T03:26:03;100794.34;;;9.86;100.00
46718;BME280;32448;44.960;-0.698;2023-03-14T03:28:30;100804.84;;;9.90;100.00
46718;BME280;32448;44.960;-0.698;2023-03-14T03:30:58;100812.63;;;9.86;100.00
46718;BME280;32448;44.960;-0.698;2023-03-14T03:33:26;100828.28;;;9.86;100.00
46718;BME280;32448;44.960;-0.698;2023-03-14T03:35:53;100827.44;;;9.88;100.00
46718;BME280;32448;44.960;-0.698;2023-03-14T03:38:29;100836.16;;;9.88;100.00
46718;BME280;32448;44.960;-0.698;2023-03-14T03:41:13;100842.28;;;9.90;100.00
46718;BME280;32448;44.960;-0.698;2023-03-14T03:43:41;100837.91;;;9.89;100.00
46718;BME280;32448;44.960;-0.698;2023-03-14T03:46:09;100850.19;;;9.95;100.00
46718;BME280;32448;44.960;-0.698;2023-03-14T03:48:37;100862.50;;;10.00;100.00
46718;BME280;32448;44.960;-0.698;2023-03-14T03:51:05;100879.09;;;10.02;100.00
46718;BME280;32448;44.960;-0.698;2023-03-14T03:53:34;100886.09;;;10.03;100.00
46718;BME280;32448;44.960;-0.698;2023-03-14T03:56:06;100896.50;;;10.02;100.00
46718;BME280;32448;44.960;-0.698;2023-03-14T03:58:34;100889.34;;;9.93;100.00
46718;BME280;32448;44.960;-0.698;2023-03-14T04:01:02;100859.50;;;9.80;100.00
46718;BME280;32448;44.960;-0.698;2023-03-14T04:03:29;100869.00;;;9.78;100.00
46718;BME280;32448;44.960;-0.698;2023-03-14T04:06:03;100868.28;;;9.85;100.00
46718;BME280;32448;44.960;-0.698;2023-03-14T04:08:33;100860.09;;;9.69;100.00
46718;BME280;32448;44.960;-0.698;2023-03-14T04:11:02;100878.47;;;9.73;100.00
46718;BME280;32448;44.960;-0.698;2023-03-14T04:13:49;100866.28;;;9.74;100.00
46718;BME280;32448;44.960;-0.698;2023-03-14T04:16:20;100876.66;;;9.69;100.00
46718;BME280;32448;44.960;-0.698;2023-03-14T04:18:50;100880.03;;;9.65;100.00
46718;BME280;32448;44.960;-0.698;2023-03-14T04:21:19;100883.41;;;9.61;100.00
46718;BME280;32448;44.960;-0.698;2023-03-14T04:23:52;100892.22;;;9.66;100.00
46718;BME280;32448;44.960;-0.698;2023-03-14T04:26:19;100893.78;;;9.58;100.00
46718;BME280;32448;44.960;-0.698;2023-03-14T04:32:59;100919.38;;;9.74;100.00
46718;BME280;32448;44.960;-0.698;2023-03-14T04:35:33;100889.50;;;9.60;100.00
46718;BME280;32448;44.960;-0.698;2023-03-14T04:38:06;100929.09;;;9.80;100.00
46718;BME280;32448;44.960;-0.698;2023-03-14T04:40:37;100916.91;;;9.80;100.00
46718;BME280;32448;44.960;-0.698;2023-03-14T04:43:06;100928.41;;;9.89;100.00
46718;BME280;32448;44.960;-0.698;2023-03-14T04:45:34;100930.69;;;9.75;100.00
46718;BME280;32448;44.960;-0.698;2023-03-14T04:48:05;100943.09;;;9.85;100.00
46718;BME280;32448;44.960;-0.698;2023-03-14T04:50:32;100954.41;;;9.84;100.00
46718;BME280;32448;44.960;-0.698;2023-03-14T04:52:59;100942.34;;;9.89;100.00
46718;BME280;32448;44.960;-0.698;2023-03-14T04:55:27;100945.03;;;9.92;100.00
46718;BME280;32448;44.960;-0.698;2023-03-14T04:57:55;100957.16;;;9.90;100.00
46718;BME280;32448;44.960;-0.698;2023-03-14T05:00:23;100962.47;;;9.93;100.00
46718;BME280;32448;44.960;-0.698;2023-03-14T05:03:29;100963.25;;;9.91;100.00
46718;BME280;32448;44.960;-0.698;2023-03-14T05:06:09;100960.72;;;9.94;100.00
46718;BME280;32448;44.960;-0.698;2023-03-14T05:08:59;100959.81;;;9.92;100.00
46718;BME280;32448;44.960;-0.698;2023-03-14T05:12:06;100977.09;;;9.86;100.00
46718;BME280;32448;44.960;-0.698;2023-03-14T05:14:44;100982.31;;;9.86;100.00
46718;BME280;32448;44.960;-0.698;2023-03-14T05:17:19;100945.38;;;9.70;100.00
46718;BME280;32448;44.960;-0.698;2023-03-14T05:20:20;100969.00;;;9.76;100.00
46718;BME280;32448;44.960;-0.698;2023-03-14T05:22:55;100979.28;;;9.68;100.00
46718;BME280;32448;44.960;-0.698;2023-03-14T05:25:57;100968.72;;;9.64;100.00
46718;BME280;32448;44.960;-0.698;2023-03-14T05:28:37;100988.91;;;9.71;100.00
46718;BME280;32448;44.960;-0.698;2023-03-14T05:31:11;101002.84;;;9.73;100.00
46718;BME280;32448;44.960;-0.698;2023-03-14T05:33:42;100985.19;;;9.61;100.00
46718;BME280;32448;44.960;-0.698;2023-03-14T05:36:14;101001.09;;;9.70;100.00
46718;BME280;32448;44.960;-0.698;2023-03-14T05:39:00;100992.13;;;9.59;100.00
46718;BME280;32448;44.960;-0.698;2023-03-14T05:41:54;101000.84;;;9.61;100.00
46718;BME280;32448;44.960;-0.698;2023-03-14T05:44:23;101018.16;;;9.58;100.00
46718;BME280;32448;44.960;-0.698;2023-03-14T05:47:02;101033.66;;;9.52;100.00
46718;BME280;32448;44.960;-0.698;2023-03-14T05:49:35;101033.75;;;9.55;100.00
46718;BME280;32448;44.960;-0.698;2023-03-14T05:52:21;101024.03;;;9.49;100.00
46718;BME280;32448;44.960;-0.698;2023-03-14T05:55:15;101036.16;;;9.47;100.00
46718;BME280;32448;44.960;-0.698;2023-03-14T05:58:08;101039.53;;;9.43;100.00
46718;BME280;32448;44.960;-0.698;2023-03-14T06:00:54;101032.34;;;9.34;100.00
46718;BME280;32448;44.960;-0.698;2023-03-14T06:03:41;101036.44;;;9.25;100.00
46718;BME280;32448;44.960;-0.698;2023-03-14T06:06:09;101048.75;;;9.30;100.00
46718;BME280;32448;44.960;-0.698;2023-03-14T06:08:36;101062.72;;;9.32;100.00
46718;BME280;32448;44.960;-0.698;2023-03-14T06:11:05;101070.44;;;9.28;100.00
46718;BME280;32448;44.960;-0.698;2023-03-14T06:13:32;101072.13;;;9.26;100.00
46718;BME280;32448;44.960;-0.698;2023-03-14T06:15:59;101080.94;;;9.31;100.00
46718;BME280;32448;44.960;-0.698;2023-03-14T06:18:27;101085.22;;;9.29;100.00
46718;BME280;32448;44.960;-0.698;2023-03-14T06:21:06;101086.94;;;9.27;100.00
46718;BME280;32448;44.960;-0.698;2023-03-14T06:23:34;101105.78;;;9.18;100.00
46718;BME280;32448;44.960;-0.698;2023-03-14T06:26:02;101103.13;;;9.15;100.00
46718;BME280;32448;44.960;-0.698;2023-03-14T06:28:30;101107.50;;;9.16;100.00
46718;BME280;32448;44.960;-0.698;2023-03-14T06:31:00;101116.13;;;9.13;100.00
46718;BME280;32448;44.960;-0.698;2023-03-14T06:33:33;101101.25;;;9.11;100.00
46718;BME280;32448;44.960;-0.698;2023-03-14T06:36:00;101109.22;;;9.16;100.00
46718;BME280;32448;44.960;-0.698;2023-03-14T06:38:28;101126.06;;;9.27;100.00
46718;BME280;32448;44.960;-0.698;2023-03-14T06:41:03;101111.00;;;9.17;100.00
46718;BME280;32448;44.960;-0.698;2023-03-14T06:43:35;101122.75;;;9.34;100.00
46718;BME280;32448;44.960;-0.698;2023-03-14T06:46:05;101135.91;;;9.37;100.00
46718;BME280;32448;44.960;-0.698;2023-03-14T06:48:34;101154.22;;;9.40;100.00
46718;BME280;32448;44.960;-0.698;2023-03-14T06:51:02;101148.72;;;9.29;100.00
46718;BME280;32448;44.960;-0.698;2023-03-14T06:53:29;101133.94;;;9.30;100.00
46718;BME280;32448;44.960;-0.698;2023-03-14T06:55:58;101166.38;;;9.38;100.00
46718;BME280;32448;44.960;-0.698;2023-03-14T06:58:27;101175.03;;;9.37;100.00
46718;BME280;32448;44.960;-0.698;2023-03-14T07:00:55;101180.09;;;9.32;100.00
46718;BME280;32448;44.960;-0.698;2023-03-14T07:03:27;101179.41;;;9.38;100.00
46718;BME280;32448;44.960;-0.698;2023-03-14T07:05:55;101189.81;;;9.36;100.00
46718;BME280;32448;44.960;-0.698;2023-03-14T07:08:23;101187.44;;;9.45;100.00
46718;BME280;32448;44.960;-0.698;2023-03-14T07:10:50;101187.44;;;9.45;100.00
46718;BME280;32448;44.960;-0.698;2023-03-14T07:13:18;101191.13;;;9.54;100.00
46718;BME280;32448;44.960;-0.698;2023-03-14T07:15:54;101189.50;;;9.57;100.00
46718;BME280;32448;44.960;-0.698;2023-03-14T07:18:22;101207.88;;;9.62;100.00
46718;BME280;32448;44.960;-0.698;2023-03-14T07:20:49;101214.88;;;9.63;100.00
46718;BME280;32448;44.960;-0.698;2023-03-14T07:23:18;101214.88;;;9.63;100.00
46718;BME280;32448;44.960;-0.698;2023-03-14T07:25:48;101226.59;;;9.77;100.00
46718;BME280;32448;44.960;-0.698;2023-03-14T07:28:17;101224.28;;;9.88;100.00
46718;BME280;32448;44.960;-0.698;2023-03-14T07:30:47;101235.09;;;10.01;100.00
46718;BME280;32448;44.960;-0.698;2023-03-14T07:33:22;101244.69;;;10.02;100.00
46718;BME280;32448;44.960;-0.698;2023-03-14T07:35:50;101237.69;;;10.01;100.00
46718;BME280;32448;44.960;-0.698;2023-03-14T07:38:17;101241.19;;;10.02;100.00
46718;BME280;32448;44.960;-0.698;2023-03-14T07:41:07;101250.75;;;10.01;100.00
46718;BME280;32448;44.960;-0.698;2023-03-14T07:43:39;101261.94;;;9.97;100.00
46718;BME280;32448;44.960;-0.698;2023-03-14T07:46:07;101240.13;;;9.94;100.00
46718;BME280;32448;44.960;-0.698;2023-03-14T07:48:35;101263.91;;;10.04;100.00
46718;BME280;32448;44.960;-0.698;2023-03-14T07:51:02;101245.06;;;9.84;100.00
46718;BME280;32448;44.960;-0.698;2023-03-14T07:53:29;101267.81;;;9.89;100.00
46718;BME280;32448;44.960;-0.698;2023-03-14T07:55:56;101266.25;;;9.95;100.00
46718;BME280;32448;44.960;-0.698;2023-03-14T07:58:23;101268.78;;;9.92;100.00
46718;BME280;32448;44.960;-0.698;2023-03-14T08:00:51;101261.84;;;9.93;100.00
46718;BME280;32448;44.960;-0.698;2023-03-14T08:03:19;101275.84;;;9.96;100.00
46718;BME280;32448;44.960;-0.698;2023-03-14T08:05:48;101268.84;;;9.94;100.00
46718;BME280;32448;44.960;-0.698;2023-03-14T08:08:16;101284.81;;;10.04;100.00
46718;BME280;32448;44.960;-0.698;2023-03-14T08:10:44;101289.28;;;10.10;100.00
46718;BME280;32448;44.960;-0.698;2023-03-14T08:13:11;101272.41;;;9.97;100.00
46718;BME280;32448;44.960;-0.698;2023-03-14T08:15:39;101291.16;;;10.14;100.00
46718;BME280;32448;44.960;-0.698;2023-03-14T08:18:06;101302.66;;;10.20;100.00
46718;BME280;32448;44.960;-0.698;2023-03-14T08:20:35;101310.56;;;10.22;100.00
46718;BME280;32448;44.960;-0.698;2023-03-14T08:23:02;101298.25;;;10.18;100.00
46718;BME280;32448;44.960;-0.698;2023-03-14T08:25:30;101319.69;;;10.38;100.00
46718;BME280;32448;44.960;-0.698;2023-03-14T08:27:57;101310.19;;;10.41;100.00
46718;BME280;32448;44.960;-0.698;2023-03-14T08:30:25;101326.84;;;10.45;100.00
46718;BME280;32448;44.960;-0.698;2023-03-14T08:32:52;101323.47;;;10.49;100.00
46718;BME280;32448;44.960;-0.698;2023-03-14T08:35:20;101323.81;;;10.63;100.00
46718;BME280;32448;44.960;-0.698;2023-03-14T08:37:47;101337.16;;;10.73;100.00
46718;BME280;32448;44.960;-0.698;2023-03-14T08:40:14;101332.84;;;10.75;100.00
46718;BME280;32448;44.960;-0.698;2023-03-14T08:42:44;101334.53;;;10.73;100.00
46718;BME280;32448;44.960;-0.698;2023-03-14T08:45:13;101332.91;;;10.77;100.00
46718;BME280;32448;44.960;-0.698;2023-03-14T08:47:40;101330.41;;;10.81;100.00
46718;BME280;32448;44.960;-0.698;2023-03-14T08:50:08;101350.75;;;10.93;100.00
46718;BME280;32448;44.960;-0.698;2023-03-14T08:52:39;101361.38;;;11.01;100.00
46718;BME280;32448;44.960;-0.698;2023-03-14T08:55:09;101356.25;;;11.05;100.00
46718;BME280;32448;44.960;-0.698;2023-03-14T08:57:36;101360.03;;;11.18;100.00
46718;BME280;32448;44.960;-0.698;2023-03-14T09:00:05;101361.13;;;11.26;100.00
46718;BME280;32448;44.960;-0.698;2023-03-14T09:02:37;101366.66;;;11.40;100.00
46718;BME280;32448;44.960;-0.698;2023-03-14T09:05:05;101367.63;;;11.43;100.00
46718;BME280;32448;44.960;-0.698;2023-03-14T09:07:33;101362.34;;;11.42;100.00
46718;BME280;32448;44.960;-0.698;2023-03-14T09:10:02;101378.28;;;11.51;100.00
46718;BME280;32448;44.960;-0.698;2023-03-14T09:12:30;101386.16;;;11.52;100.00
46718;BME280;32448;44.960;-0.698;2023-03-14T09:14:57;101381.84;;;11.54;100.00
46718;BME280;32448;44.960;-0.698;2023-03-14T09:17:25;101386.38;;;11.61;100.00
46718;BME280;32448;44.960;-0.698;2023-03-14T09:19:52;101384.81;;;11.70;100.00
46718;BME280;32448;44.960;-0.698;2023-03-14T09:22:20;101384.16;;;11.78;100.00
46718;BME280;32448;44.960;-0.698;2023-03-14T09:24:48;101391.34;;;11.87;100.00
46718;BME280;32448;44.960;-0.698;2023-03-14T09:27:16;101382.69;;;11.91;100.00
46718;BME280;32448;44.960;-0.698;2023-03-14T09:29:43;101387.97;;;11.94;100.00
46718;BME280;32448;44.960;-0.698;2023-03-14T09:32:10;101393.06;;;11.86;100.00
46718;BME280;32448;44.960;-0.698;2023-03-14T09:34:37;101400.16;;;11.90;100.00
46718;BME280;32448;44.960;-0.698;2023-03-14T09:37:05;101402.84;;;11.95;100.00
46718;BME280;32448;44.960;-0.698;2023-03-14T09:39:32;101406.53;;;12.04;100.00
46718;BME280;32448;44.960;-0.698;2023-03-14T09:42:02;101407.66;;;12.14;100.00
46718;BME280;32448;44.960;-0.698;2023-03-14T09:44:33;101400.81;;;12.22;100.00
46718;BME280;32448;44.960;-0.698;2023-03-14T09:47:07;101420.06;;;12.23;100.00
46718;BME280;32448;44.960;-0.698;2023-03-14T09:49:42;101404.63;;;12.36;100.00
46718;BME280;32448;44.960;-0.698;2023-03-14T09:52:16;101414.22;;;12.36;100.00
46718;BME280;32448;44.960;-0.698;2023-03-14T09:55:32;101414.56;;;12.54;100.00
46718;BME280;32448;44.960;-0.698;2023-03-14T09:57:41;101410.94;;;12.49;100.00
46718;BME280;32448;44.960;-0.698;2023-03-14T10:00:15;101408.53;;;12.58;100.00
46718;BME280;32448;44.960;-0.698;2023-03-14T10:02:57;101405.88;;;12.57;100.00
46718;BME280;32448;44.960;-0.698;2023-03-14T10:05:26;101428.75;;;12.65;100.00
46718;BME280;32448;44.960;-0.698;2023-03-14T10:07:56;101413.81;;;12.61;100.00
46718;BME280;32448;44.960;-0.698;2023-03-14T10:10:25;101440.34;;;12.76;100.00
46718;BME280;32448;44.960;-0.698;2023-03-14T10:12:58;101437.81;;;12.81;100.00
46718;BME280;32448;44.960;-0.698;2023-03-14T10:15:36;101433.63;;;12.91;100.00
46718;BME280;32448;44.960;-0.698;2023-03-14T10:18:12;101425.41;;;12.74;100.00
46718;BME280;32448;44.960;-0.698;2023-03-14T10:20:44;101422.72;;;12.71;100.00
46718;BME280;32448;44.960;-0.698;2023-03-14T10:25:42;101448.56;;;12.96;100.00
46718;BME280;32448;44.960;-0.698;2023-03-14T10:28:30;101431.88;;;12.91;100.00
46718;BME280;32448;44.960;-0.698;2023-03-14T10:30:58;101430.16;;;12.95;100.00
46718;BME280;32448;44.960;-0.698;2023-03-14T10:33:32;101438.94;;;12.97;100.00
46718;BME280;32448;44.960;-0.698;2023-03-14T10:36:25;101431.41;;;13.15;100.00
46718;BME280;32448;44.960;-0.698;2023-03-14T10:39:32;101441.25;;;13.27;100.00
46718;BME280;32448;44.960;-0.698;2023-03-14T10:42:27;101439.19;;;13.09;100.00
46718;BME280;32448;44.960;-0.698;2023-03-14T10:45:06;101436.72;;;13.18;100.00
46718;BME280;32448;44.960;-0.698;2023-03-14T10:47:48;101433.91;;;13.07;100.00
46718;BME280;32448;44.960;-0.698;2023-03-14T10:50:28;101449.78;;;13.15;100.00
46718;BME280;32448;44.960;-0.698;2023-03-14T10:52:57;101450.88;;;13.25;100.00
46718;BME280;32448;44.960;-0.698;2023-03-14T10:55:39;101459.84;;;13.39;100.00
46718;BME280;32448;44.960;-0.698;2023-03-14T10:58:38;101453.03;;;13.52;100.00
46718;BME280;32448;44.960;-0.698;2023-03-14T11:06:39;101470.81;;;13.68;100.00
46718;BME280;32448;44.960;-0.698;2023-03-14T11:14:46;101528.81;;;12.02;100.00
46718;BME280;32448;44.960;-0.698;2023-03-14T11:17:30;101539.69;;;11.83;100.00
46718;BME280;32448;44.960;-0.698;2023-03-14T11:22:50;101571.88;;;11.13;100.00
46718;BME280;32448;44.960;-0.698;2023-03-14T11:25:47;101577.31;;;10.89;100.00
46718;BME280;32448;44.960;-0.698;2023-03-14T11:28:38;101573.25;;;10.69;100.00
46718;BME280;32448;44.960;-0.698;2023-03-14T11:33:42;101564.25;;;10.60;100.00
46718;BME280;32448;44.960;-0.698;2023-03-14T11:36:38;101552.81;;;10.56;100.00
46718;BME280;32448;44.960;-0.698;2023-03-14T11:39:01;101553.13;;;10.67;100.00
46718;BME280;32448;44.960;-0.698;2023-03-14T11:41:33;101566.34;;;10.71;100.00
46718;BME280;32448;44.960;-0.698;2023-03-14T11:44:16;101558.59;;;10.76;100.00
46718;BME280;32448;44.960;-0.698;2023-03-14T11:47:06;101573.72;;;10.86;100.00
46718;BME280;32448;44.960;-0.698;2023-03-14T11:49:44;101565.03;;;10.87;100.00
46718;BME280;32448;44.960;-0.698;2023-03-14T11:52:20;101558.22;;;10.92;100.00
46718;BME280;32448;44.960;-0.698;2023-03-14T11:55:10;101563.94;;;11.10;100.00
46718;BME280;32448;44.960;-0.698;2023-03-14T11:57:39;101558.50;;;11.34;100.00
46718;BME280;32448;44.960;-0.698;2023-03-14T12:00:17;101558.06;;;11.52;100.00
46718;BME280;32448;44.960;-0.698;2023-03-14T12:02:57;101556.09;;;11.76;100.00
46718;BME280;32448;44.960;-0.698;2023-03-14T12:08:53;101544.44;;;11.99;100.00
46718;BME280;32448;44.960;-0.698;2023-03-14T12:13:58;101544.44;;;12.37;100.00
46718;BME280;32448;44.960;-0.698;2023-03-14T12:16:33;101547.44;;;12.55;100.00
46718;BME280;32448;44.960;-0.698;2023-03-14T12:19:34;101544.94;;;12.61;100.00
46718;BME280;32448;44.960;-0.698;2023-03-14T12:22:18;101550.28;;;12.66;100.00
46718;BME280;32448;44.960;-0.698;2023-03-14T12:24:54;101512.09;;;12.38;100.00
46718;BME280;32448;44.960;-0.698;2023-03-14T12:27:43;101536.25;;;12.23;100.00
46718;BME280;32448;44.960;-0.698;2023-03-14T12:30:27;101536.16;;;12.19;100.00
46718;BME280;32448;44.960;-0.698;2023-03-14T12:35:45;101535.47;;;12.26;100.00
46718;BME280;32448;44.960;-0.698;2023-03-14T12:38:29;101546.38;;;12.46;100.00
46718;BME280;32448;44.960;-0.698;2023-03-14T12:41:06;101529.56;;;12.37;100.00
46718;BME280;32448;44.960;-0.698;2023-03-14T12:43:35;101538.34;;;12.39;100.00
46718;BME280;32448;44.960;-0.698;2023-03-14T12:48:40;101537.00;;;12.57;100.00
46718;BME280;32448;44.960;-0.698;2023-03-14T12:51:27;101528.28;;;12.58;100.00
46718;BME280;32448;44.960;-0.698;2023-03-14T12:54:10;101536.84;;;12.91;100.00
46718;BME280;32448;44.960;-0.698;2023-03-14T12:59:45;101518.88;;;13.12;100.00
46718;BME280;32448;44.960;-0.698;2023-03-14T13:02:28;101518.19;;;13.21;100.00
46718;BME280;32448;44.960;-0.698;2023-03-14T13:05:03;101520.03;;;13.28;100.00
46718;BME280;32448;44.960;-0.698;2023-03-14T13:15:17;101518.06;;;13.66;100.00
46718;BME280;32448;44.960;-0.698;2023-03-14T13:17:47;101500.56;;;13.67;100.00
46718;BME280;32448;44.960;-0.698;2023-03-14T13:20:30;101491.88;;;13.72;100.00
46718;BME280;32448;44.960;-0.698;2023-03-14T13:22:58;101508.84;;;13.93;100.00
46718;BME280;32448;44.960;-0.698;2023-03-14T13:25:30;101493.22;;;14.00;100.00
46718;BME280;32448;44.960;-0.698;2023-03-14T13:27:59;101502.66;;;13.88;100.00
46718;BME280;32448;44.960;-0.698;2023-03-14T13:30:35;101493.00;;;13.87;100.00
46718;BME280;32448;44.960;-0.698;2023-03-14T13:33:04;101498.34;;;13.94;100.00
46718;BME280;32448;44.960;-0.698;2023-03-14T13:35:48;101505.16;;;13.81;100.00
46718;BME280;32448;44.960;-0.698;2023-03-14T13:38:20;101499.66;;;13.65;100.00
46718;BME280;32448;44.960;-0.698;2023-03-14T13:40:51;101494.84;;;13.39;100.00
46718;BME280;32448;44.960;-0.698;2023-03-14T13:43:24;101486.19;;;13.43;100.00
46718;BME280;32448;44.960;-0.698;2023-03-14T13:46:00;101486.06;;;13.36;100.00
46718;BME280;32448;44.960;-0.698;2023-03-14T13:48:29;101485.56;;;13.58;100.00
46718;BME280;32448;44.960;-0.698;2023-03-14T13:51:09;101477.78;;;13.66;100.00
46718;BME280;32448;44.960;-0.698;2023-03-14T13:53:57;101476.78;;;13.59;100.00
46718;BME280;32448;44.960;-0.698;2023-03-14T13:56:31;101497.91;;;13.65;100.00
46718;BME280;32448;44.960;-0.698;2023-03-14T13:58:59;101488.00;;;13.49;100.00
46718;BME280;32448;44.960;-0.698;2023-03-14T14:01:29;101484.53;;;13.50;100.00
46718;BME280;32448;44.960;-0.698;2023-03-14T14:04:05;101492.56;;;13.58;100.00
46718;BME280;32448;44.960;-0.698;2023-03-14T14:06:46;101496.88;;;13.54;100.00
46718;BME280;32448;44.960;-0.698;2023-03-14T14:09:21;101504.72;;;13.53;100.00
46718;BME280;32448;44.960;-0.698;2023-03-14T14:11:59;101502.75;;;13.41;100.00
46718;BME280;32448;44.960;-0.698;2023-03-14T14:15:14;101525.06;;;13.16;100.00